sensor_id;sensor_type;location;lat;lon;timestamp;P1;durP1;ratioP1;P2;durP2;ratioP2
64903;SDS011;51401;48.882;12.598;2024-02-26T00:01:02;11.60;;;7.20;;
64903;SDS011;51401;48.882;12.598;2024-02-26T00:03:27;12.07;;;7.63;;
64903;SDS011;51401;48.882;12.598;2024-02-26T00:05:53;12.27;;;7.88;;
64903;SDS011;51401;48.882;12.598;2024-02-26T00:08:18;10.48;;;7.60;;
64903;SDS011;51401;48.882;12.598;2024-02-26T00:10:43;12.25;;;7.55;;
64903;SDS011;51401;48.882;12.598;2024-02-26T00:13:08;13.05;;;8.73;;
64903;SDS011;51401;48.882;12.598;2024-02-26T00:15:34;11.75;;;7.82;;
64903;SDS011;51401;48.882;12.598;2024-02-26T00:18:00;13.48;;;7.57;;
64903;SDS011;51401;48.882;12.598;2024-02-26T00:20:26;11.45;;;7.75;;
64903;SDS011;51401;48.882;12.598;2024-02-26T00:22:51;12.20;;;7.82;;
64903;SDS011;51401;48.882;12.598;2024-02-26T00:25:17;10.45;;;6.57;;
64903;SDS011;51401;48.882;12.598;2024-02-26T00:27:42;10.15;;;7.05;;
64903;SDS011;51401;48.882;12.598;2024-02-26T00:30:08;11.07;;;6.72;;
64903;SDS011;51401;48.882;12.598;2024-02-26T00:32:34;12.00;;;7.13;;
64903;SDS011;51401;48.882;12.598;2024-02-26T00:34:59;10.82;;;7.40;;
64903;SDS011;51401;48.882;12.598;2024-02-26T00:37:25;11.63;;;7.38;;
64903;SDS011;51401;48.882;12.598;2024-02-26T00:39:50;12.27;;;7.38;;
64903;SDS011;51401;48.882;12.598;2024-02-26T00:42:15;15.25;;;8.23;;
64903;SDS011;51401;48.882;12.598;2024-02-26T00:44:40;15.15;;;8.07;;
64903;SDS011;51401;48.882;12.598;2024-02-26T00:47:06;12.35;;;6.53;;
64903;SDS011;51401;48.882;12.598;2024-02-26T00:49:31;12.82;;;8.15;;
64903;SDS011;51401;48.882;12.598;2024-02-26T00:51:56;12.13;;;7.10;;
64903;SDS011;51401;48.882;12.598;2024-02-26T00:54:22;13.23;;;7.20;;
64903;SDS011;51401;48.882;12.598;2024-02-26T00:56:47;13.02;;;7.70;;
64903;SDS011;51401;48.882;12.598;2024-02-26T00:59:12;12.00;;;7.60;;
64903;SDS011;51401;48.882;12.598;2024-02-26T01:01:38;12.48;;;7.25;;
64903;SDS011;51401;48.882;12.598;2024-02-26T01:04:03;11.27;;;6.72;;
64903;SDS011;51401;48.882;12.598;2024-02-26T01:06:28;10.25;;;6.95;;
64903;SDS011;51401;48.882;12.598;2024-02-26T01:08:54;10.60;;;7.03;;
64903;SDS011;51401;48.882;12.598;2024-02-26T01:11:19;9.88;;;6.35;;
64903;SDS011;51401;48.882;12.598;2024-02-26T01:13:44;11.75;;;6.90;;
64903;SDS011;51401;48.882;12.598;2024-02-26T01:16:10;12.68;;;6.50;;
64903;SDS011;51401;48.882;12.598;2024-02-26T01:18:35;12.65;;;6.43;;
64903;SDS011;51401;48.882;12.598;2024-02-26T01:21:01;11.07;;;6.43;;
64903;SDS011;51401;48.882;12.598;2024-02-26T01:23:26;10.48;;;6.57;;
64903;SDS011;51401;48.882;12.598;2024-02-26T01:25:52;6.70;;;5.20;;
64903;SDS011;51401;48.882;12.598;2024-02-26T01:28:17;7.63;;;5.30;;
64903;SDS011;51401;48.882;12.598;2024-02-26T01:30:42;10.18;;;6.38;;
64903;SDS011;51401;48.882;12.598;2024-02-26T01:33:07;8.25;;;5.85;;
64903;SDS011;51401;48.882;12.598;2024-02-26T01:35:33;9.10;;;5.45;;
64903;SDS011;51401;48.882;12.598;2024-02-26T01:37:58;7.97;;;5.50;;
64903;SDS011;51401;48.882;12.598;2024-02-26T01:40:26;8.20;;;5.90;;
64903;SDS011;51401;48.882;12.598;2024-02-26T01:42:52;8.93;;;5.57;;
64903;SDS011;51401;48.882;12.598;2024-02-26T01:45:17;8.93;;;5.25;;
64903;SDS011;51401;48.882;12.598;2024-02-26T01:47:51;8.55;;;5.45;;
64903;SDS011;51401;48.882;12.598;2024-02-26T01:50:18;7.35;;;5.13;;
64903;SDS011;51401;48.882;12.598;2024-02-26T01:52:44;7.03;;;5.15;;
64903;SDS011;51401;48.882;12.598;2024-02-26T01:55:11;8.48;;;4.40;;
64903;SDS011;51401;48.882;12.598;2024-02-26T01:57:39;9.27;;;4.22;;
64903;SDS011;51401;48.882;12.598;2024-02-26T02:00:05;5.63;;;4.35;;
64903;SDS011;51401;48.882;12.598;2024-02-26T02:02:32;5.88;;;4.05;;
64903;SDS011;51401;48.882;12.598;2024-02-26T02:04:58;7.53;;;4.15;;
64903;SDS011;51401;48.882;12.598;2024-02-26T02:07:23;5.75;;;3.90;;
64903;SDS011;51401;48.882;12.598;2024-02-26T02:09:49;7.40;;;4.90;;
64903;SDS011;51401;48.882;12.598;2024-02-26T02:12:15;5.57;;;4.10;;
64903;SDS011;51401;48.882;12.598;2024-02-26T02:14:41;6.40;;;4.63;;
64903;SDS011;51401;48.882;12.598;2024-02-26T02:17:06;6.05;;;4.13;;
64903;SDS011;51401;48.882;12.598;2024-02-26T02:19:32;6.80;;;4.00;;
64903;SDS011;51401;48.882;12.598;2024-02-26T02:21:57;4.85;;;3.70;;
64903;SDS011;51401;48.882;12.598;2024-02-26T02:24:22;3.55;;;3.17;;
64903;SDS011;51401;48.882;12.598;2024-02-26T02:26:47;4.75;;;3.28;;
64903;SDS011;51401;48.882;12.598;2024-02-26T02:29:13;6.10;;;4.00;;
64903;SDS011;51401;48.882;12.598;2024-02-26T02:31:39;5.35;;;3.35;;
64903;SDS011;51401;48.882;12.598;2024-02-26T02:34:05;5.30;;;3.22;;
64903;SDS011;51401;48.882;12.598;2024-02-26T02:36:31;7.10;;;4.00;;
64903;SDS011;51401;48.882;12.598;2024-02-26T02:38:56;6.32;;;3.58;;
64903;SDS011;51401;48.882;12.598;2024-02-26T02:41:21;5.90;;;3.47;;
64903;SDS011;51401;48.882;12.598;2024-02-26T02:43:47;4.75;;;3.85;;
64903;SDS011;51401;48.882;12.598;2024-02-26T02:46:12;5.68;;;3.25;;
64903;SDS011;51401;48.882;12.598;2024-02-26T02:48:37;7.47;;;3.40;;
64903;SDS011;51401;48.882;12.598;2024-02-26T02:51:04;4.05;;;2.75;;
64903;SDS011;51401;48.882;12.598;2024-02-26T02:53:29;4.97;;;3.28;;
64903;SDS011;51401;48.882;12.598;2024-02-26T02:55:55;4.55;;;3.42;;
64903;SDS011;51401;48.882;12.598;2024-02-26T02:58:20;4.95;;;2.90;;
64903;SDS011;51401;48.882;12.598;2024-02-26T03:00:46;5.00;;;3.13;;
64903;SDS011;51401;48.882;12.598;2024-02-26T03:03:11;3.22;;;2.20;;
64903;SDS011;51401;48.882;12.598;2024-02-26T03:05:36;3.75;;;2.90;;
64903;SDS011;51401;48.882;12.598;2024-02-26T03:08:02;3.83;;;2.97;;
64903;SDS011;51401;48.882;12.598;2024-02-26T03:10:27;4.43;;;2.90;;
64903;SDS011;51401;48.882;12.598;2024-02-26T03:12:53;3.97;;;2.58;;
64903;SDS011;51401;48.882;12.598;2024-02-26T03:15:18;3.72;;;2.70;;
64903;SDS011;51401;48.882;12.598;2024-02-26T03:17:44;3.92;;;2.63;;
64903;SDS011;51401;48.882;12.598;2024-02-26T03:20:09;3.47;;;3.00;;
64903;SDS011;51401;48.882;12.598;2024-02-26T03:22:35;6.25;;;3.53;;
64903;SDS011;51401;48.882;12.598;2024-02-26T03:25:00;3.30;;;2.53;;
64903;SDS011;51401;48.882;12.598;2024-02-26T03:27:26;5.10;;;2.63;;
64903;SDS011;51401;48.882;12.598;2024-02-26T03:29:51;3.42;;;2.50;;
64903;SDS011;51401;48.882;12.598;2024-02-26T03:32:17;3.67;;;2.88;;
64903;SDS011;51401;48.882;12.598;2024-02-26T03:34:43;3.28;;;2.30;;
64903;SDS011;51401;48.882;12.598;2024-02-26T03:37:09;4.68;;;2.88;;
64903;SDS011;51401;48.882;12.598;2024-02-26T03:39:36;3.22;;;2.05;;
64903;SDS011;51401;48.882;12.598;2024-02-26T03:42:01;3.88;;;2.40;;
64903;SDS011;51401;48.882;12.598;2024-02-26T03:44:27;3.97;;;2.75;;
64903;SDS011;51401;48.882;12.598;2024-02-26T03:46:52;4.00;;;2.75;;
64903;SDS011;51401;48.882;12.598;2024-02-26T03:49:17;5.15;;;2.75;;
64903;SDS011;51401;48.882;12.598;2024-02-26T03:51:43;4.10;;;2.90;;
64903;SDS011;51401;48.882;12.598;2024-02-26T03:54:08;3.35;;;2.50;;
64903;SDS011;51401;48.882;12.598;2024-02-26T03:56:33;3.83;;;2.83;;
64903;SDS011;51401;48.882;12.598;2024-02-26T03:58:58;4.32;;;2.70;;
64903;SDS011;51401;48.882;12.598;2024-02-26T04:01:26;3.28;;;2.75;;
64903;SDS011;51401;48.882;12.598;2024-02-26T04:03:51;4.75;;;2.90;;
64903;SDS011;51401;48.882;12.598;2024-02-26T04:06:18;3.78;;;2.50;;
64903;SDS011;51401;48.882;12.598;2024-02-26T04:08:45;5.25;;;2.35;;
64903;SDS011;51401;48.882;12.598;2024-02-26T04:11:11;3.65;;;2.75;;
64903;SDS011;51401;48.882;12.598;2024-02-26T04:13:37;4.72;;;2.60;;
64903;SDS011;51401;48.882;12.598;2024-02-26T04:16:05;4.30;;;2.65;;
64903;SDS011;51401;48.882;12.598;2024-02-26T04:18:31;4.60;;;3.15;;
64903;SDS011;51401;48.882;12.598;2024-02-26T04:20:57;5.47;;;2.90;;
64903;SDS011;51401;48.882;12.598;2024-02-26T04:23:23;3.85;;;2.95;;
64903;SDS011;51401;48.882;12.598;2024-02-26T04:25:48;4.97;;;2.83;;
64903;SDS011;51401;48.882;12.598;2024-02-26T04:28:14;4.22;;;3.00;;
64903;SDS011;51401;48.882;12.598;2024-02-26T04:30:39;5.43;;;3.08;;
64903;SDS011;51401;48.882;12.598;2024-02-26T04:33:05;4.95;;;3.33;;
64903;SDS011;51401;48.882;12.598;2024-02-26T04:35:30;3.47;;;2.90;;
64903;SDS011;51401;48.882;12.598;2024-02-26T04:37:56;3.15;;;2.42;;
64903;SDS011;51401;48.882;12.598;2024-02-26T04:40:21;4.75;;;3.13;;
64903;SDS011;51401;48.882;12.598;2024-02-26T04:42:47;4.03;;;2.75;;
64903;SDS011;51401;48.882;12.598;2024-02-26T04:45:12;5.40;;;2.97;;
64903;SDS011;51401;48.882;12.598;2024-02-26T04:47:37;3.60;;;2.92;;
64903;SDS011;51401;48.882;12.598;2024-02-26T04:50:03;5.97;;;3.25;;
64903;SDS011;51401;48.882;12.598;2024-02-26T04:52:29;3.20;;;2.50;;
64903;SDS011;51401;48.882;12.598;2024-02-26T04:54:54;5.68;;;2.85;;
64903;SDS011;51401;48.882;12.598;2024-02-26T04:57:20;7.25;;;2.80;;
64903;SDS011;51401;48.882;12.598;2024-02-26T04:59:46;3.88;;;2.47;;
64903;SDS011;51401;48.882;12.598;2024-02-26T05:02:12;4.32;;;2.53;;
64903;SDS011;51401;48.882;12.598;2024-02-26T05:04:37;3.72;;;2.75;;
64903;SDS011;51401;48.882;12.598;2024-02-26T05:07:02;4.95;;;3.92;;
64903;SDS011;51401;48.882;12.598;2024-02-26T05:09:28;5.32;;;2.95;;
64903;SDS011;51401;48.882;12.598;2024-02-26T05:11:53;6.68;;;4.07;;
64903;SDS011;51401;48.882;12.598;2024-02-26T05:14:19;5.93;;;3.60;;
64903;SDS011;51401;48.882;12.598;2024-02-26T05:16:44;4.30;;;3.10;;
64903;SDS011;51401;48.882;12.598;2024-02-26T05:19:09;4.70;;;3.42;;
64903;SDS011;51401;48.882;12.598;2024-02-26T05:21:35;6.63;;;3.88;;
64903;SDS011;51401;48.882;12.598;2024-02-26T05:24:00;4.45;;;3.50;;
64903;SDS011;51401;48.882;12.598;2024-02-26T05:26:25;5.45;;;4.30;;
64903;SDS011;51401;48.882;12.598;2024-02-26T05:28:51;3.42;;;3.13;;
64903;SDS011;51401;48.882;12.598;2024-02-26T05:31:16;5.53;;;3.10;;
64903;SDS011;51401;48.882;12.598;2024-02-26T05:33:42;3.67;;;2.70;;
64903;SDS011;51401;48.882;12.598;2024-02-26T05:36:08;3.72;;;3.25;;
64903;SDS011;51401;48.882;12.598;2024-02-26T05:38:34;3.47;;;2.78;;
64903;SDS011;51401;48.882;12.598;2024-02-26T05:40:59;6.05;;;3.17;;
64903;SDS011;51401;48.882;12.598;2024-02-26T05:43:25;5.63;;;3.20;;
64903;SDS011;51401;48.882;12.598;2024-02-26T05:45:50;4.20;;;2.83;;
64903;SDS011;51401;48.882;12.598;2024-02-26T05:48:16;3.83;;;3.20;;
64903;SDS011;51401;48.882;12.598;2024-02-26T05:50:41;4.32;;;3.15;;
64903;SDS011;51401;48.882;12.598;2024-02-26T05:53:06;5.57;;;3.70;;
64903;SDS011;51401;48.882;12.598;2024-02-26T05:55:32;7.63;;;3.83;;
64903;SDS011;51401;48.882;12.598;2024-02-26T05:57:57;4.68;;;3.83;;
64903;SDS011;51401;48.882;12.598;2024-02-26T06:00:22;5.88;;;3.40;;
64903;SDS011;51401;48.882;12.598;2024-02-26T06:02:48;3.28;;;2.90;;
64903;SDS011;51401;48.882;12.598;2024-02-26T06:05:13;5.43;;;3.42;;
64903;SDS011;51401;48.882;12.598;2024-02-26T06:07:38;10.02;;;7.20;;
64903;SDS011;51401;48.882;12.598;2024-02-26T06:10:04;7.32;;;5.20;;
64903;SDS011;51401;48.882;12.598;2024-02-26T06:12:30;7.28;;;4.15;;
64903;SDS011;51401;48.882;12.598;2024-02-26T06:14:55;5.95;;;4.15;;
64903;SDS011;51401;48.882;12.598;2024-02-26T06:17:21;6.32;;;4.28;;
64903;SDS011;51401;48.882;12.598;2024-02-26T06:19:46;6.60;;;4.35;;
64903;SDS011;51401;48.882;12.598;2024-02-26T06:22:11;7.30;;;4.05;;
64903;SDS011;51401;48.882;12.598;2024-02-26T06:24:37;5.85;;;3.65;;
64903;SDS011;51401;48.882;12.598;2024-02-26T06:27:02;4.32;;;3.15;;
64903;SDS011;51401;48.882;12.598;2024-02-26T06:29:28;7.07;;;4.60;;
64903;SDS011;51401;48.882;12.598;2024-02-26T06:31:53;5.20;;;3.47;;
64903;SDS011;51401;48.882;12.598;2024-02-26T06:34:18;8.13;;;4.07;;
64903;SDS011;51401;48.882;12.598;2024-02-26T06:36:44;5.60;;;3.75;;
64903;SDS011;51401;48.882;12.598;2024-02-26T06:39:09;3.85;;;2.95;;
64903;SDS011;51401;48.882;12.598;2024-02-26T06:41:35;3.33;;;3.00;;
64903;SDS011;51401;48.882;12.598;2024-02-26T06:44:01;5.47;;;3.85;;
64903;SDS011;51401;48.882;12.598;2024-02-26T06:46:27;4.13;;;3.67;;
64903;SDS011;51401;48.882;12.598;2024-02-26T06:48:55;7.40;;;4.05;;
64903;SDS011;51401;48.882;12.598;2024-02-26T06:51:21;3.53;;;2.95;;
64903;SDS011;51401;48.882;12.598;2024-02-26T06:53:46;4.88;;;3.72;;
64903;SDS011;51401;48.882;12.598;2024-02-26T06:56:11;4.07;;;3.25;;
64903;SDS011;51401;48.882;12.598;2024-02-26T06:58:36;3.83;;;2.90;;
64903;SDS011;51401;48.882;12.598;2024-02-26T07:01:02;6.40;;;3.72;;
64903;SDS011;51401;48.882;12.598;2024-02-26T07:03:27;6.53;;;3.40;;
64903;SDS011;51401;48.882;12.598;2024-02-26T07:05:52;4.03;;;2.95;;
64903;SDS011;51401;48.882;12.598;2024-02-26T07:08:18;6.25;;;2.85;;
64903;SDS011;51401;48.882;12.598;2024-02-26T07:10:43;7.75;;;3.25;;
64903;SDS011;51401;48.882;12.598;2024-02-26T07:13:09;5.78;;;3.33;;
64903;SDS011;51401;48.882;12.598;2024-02-26T07:15:34;4.13;;;3.10;;
64903;SDS011;51401;48.882;12.598;2024-02-26T07:17:59;3.97;;;3.58;;
64903;SDS011;51401;48.882;12.598;2024-02-26T07:20:28;5.03;;;3.33;;
64903;SDS011;51401;48.882;12.598;2024-02-26T07:22:54;5.85;;;3.67;;
64903;SDS011;51401;48.882;12.598;2024-02-26T07:25:20;10.00;;;4.70;;
64903;SDS011;51401;48.882;12.598;2024-02-26T07:27:46;4.90;;;4.25;;
64903;SDS011;51401;48.882;12.598;2024-02-26T07:30:11;7.05;;;4.03;;
64903;SDS011;51401;48.882;12.598;2024-02-26T07:32:37;5.93;;;3.63;;
64903;SDS011;51401;48.882;12.598;2024-02-26T07:35:02;4.88;;;3.90;;
64903;SDS011;51401;48.882;12.598;2024-02-26T07:37:28;6.05;;;5.32;;
64903;SDS011;51401;48.882;12.598;2024-02-26T07:39:53;3.97;;;3.57;;
64903;SDS011;51401;48.882;12.598;2024-02-26T07:42:19;4.55;;;3.17;;
64903;SDS011;51401;48.882;12.598;2024-02-26T07:44:44;3.60;;;3.10;;
64903;SDS011;51401;48.882;12.598;2024-02-26T07:47:09;7.30;;;3.65;;
64903;SDS011;51401;48.882;12.598;2024-02-26T07:49:35;5.25;;;3.53;;
64903;SDS011;51401;48.882;12.598;2024-02-26T07:52:00;5.87;;;3.73;;
64903;SDS011;51401;48.882;12.598;2024-02-26T07:54:25;3.80;;;2.90;;
64903;SDS011;51401;48.882;12.598;2024-02-26T07:56:50;4.40;;;3.17;;
64903;SDS011;51401;48.882;12.598;2024-02-26T07:59:16;4.25;;;2.80;;
64903;SDS011;51401;48.882;12.598;2024-02-26T08:01:41;4.68;;;3.47;;
64903;SDS011;51401;48.882;12.598;2024-02-26T08:04:07;2.75;;;2.55;;
64903;SDS011;51401;48.882;12.598;2024-02-26T08:06:32;3.75;;;2.70;;
64903;SDS011;51401;48.882;12.598;2024-02-26T08:08:57;4.25;;;2.95;;
64903;SDS011;51401;48.882;12.598;2024-02-26T08:11:23;3.63;;;2.83;;
64903;SDS011;51401;48.882;12.598;2024-02-26T08:13:48;4.80;;;2.65;;
64903;SDS011;51401;48.882;12.598;2024-02-26T08:16:13;4.60;;;2.92;;
64903;SDS011;51401;48.882;12.598;2024-02-26T08:18:38;4.35;;;3.28;;
64903;SDS011;51401;48.882;12.598;2024-02-26T08:21:04;4.75;;;3.13;;
64903;SDS011;51401;48.882;12.598;2024-02-26T08:23:29;5.13;;;3.20;;
64903;SDS011;51401;48.882;12.598;2024-02-26T08:25:56;4.70;;;3.50;;
64903;SDS011;51401;48.882;12.598;2024-02-26T08:28:21;5.45;;;3.45;;
64903;SDS011;51401;48.882;12.598;2024-02-26T08:30:46;4.17;;;2.87;;
64903;SDS011;51401;48.882;12.598;2024-02-26T08:33:11;3.80;;;2.70;;
64903;SDS011;51401;48.882;12.598;2024-02-26T08:35:38;3.75;;;2.67;;
64903;SDS011;51401;48.882;12.598;2024-02-26T08:38:03;5.40;;;2.70;;
64903;SDS011;51401;48.882;12.598;2024-02-26T08:40:29;4.23;;;3.00;;
64903;SDS011;51401;48.882;12.598;2024-02-26T08:42:54;3.42;;;2.55;;
64903;SDS011;51401;48.882;12.598;2024-02-26T08:45:20;4.75;;;2.60;;
64903;SDS011;51401;48.882;12.598;2024-02-26T08:47:46;3.25;;;2.47;;
64903;SDS011;51401;48.882;12.598;2024-02-26T08:50:11;3.95;;;3.00;;
64903;SDS011;51401;48.882;12.598;2024-02-26T08:52:37;4.82;;;3.47;;
64903;SDS011;51401;48.882;12.598;2024-02-26T08:55:03;7.35;;;4.07;;
64903;SDS011;51401;48.882;12.598;2024-02-26T08:57:29;3.33;;;2.80;;
64903;SDS011;51401;48.882;12.598;2024-02-26T08:59:57;3.30;;;2.60;;
64903;SDS011;51401;48.882;12.598;2024-02-26T09:02:22;4.03;;;2.80;;
64903;SDS011;51401;48.882;12.598;2024-02-26T09:04:48;3.77;;;2.57;;
64903;SDS011;51401;48.882;12.598;2024-02-26T09:07:13;4.07;;;2.50;;
64903;SDS011;51401;48.882;12.598;2024-02-26T09:09:39;2.75;;;2.30;;
64903;SDS011;51401;48.882;12.598;2024-02-26T09:12:04;3.40;;;2.67;;
64903;SDS011;51401;48.882;12.598;2024-02-26T09:14:29;4.85;;;2.95;;
64903;SDS011;51401;48.882;12.598;2024-02-26T09:16:54;4.37;;;3.03;;
64903;SDS011;51401;48.882;12.598;2024-02-26T09:19:20;3.20;;;2.90;;
64903;SDS011;51401;48.882;12.598;2024-02-26T09:21:45;3.33;;;2.55;;
64903;SDS011;51401;48.882;12.598;2024-02-26T09:24:11;3.55;;;2.53;;
64903;SDS011;51401;48.882;12.598;2024-02-26T09:26:37;3.25;;;2.65;;
64903;SDS011;51401;48.882;12.598;2024-02-26T09:29:02;3.60;;;2.72;;
64903;SDS011;51401;48.882;12.598;2024-02-26T09:31:29;4.93;;;2.90;;
64903;SDS011;51401;48.882;12.598;2024-02-26T09:33:54;3.58;;;2.70;;
64903;SDS011;51401;48.882;12.598;2024-02-26T09:36:19;3.77;;;3.10;;
64903;SDS011;51401;48.882;12.598;2024-02-26T09:38:45;4.13;;;2.70;;
64903;SDS011;51401;48.882;12.598;2024-02-26T09:41:14;3.50;;;2.60;;
64903;SDS011;51401;48.882;12.598;2024-02-26T09:43:41;2.85;;;2.20;;
64903;SDS011;51401;48.882;12.598;2024-02-26T09:46:10;3.08;;;2.60;;
64903;SDS011;51401;48.882;12.598;2024-02-26T09:48:35;3.70;;;2.47;;
64903;SDS011;51401;48.882;12.598;2024-02-26T09:51:02;3.67;;;2.97;;
64903;SDS011;51401;48.882;12.598;2024-02-26T09:53:28;3.28;;;2.60;;
64903;SDS011;51401;48.882;12.598;2024-02-26T09:55:56;2.25;;;1.95;;
64903;SDS011;51401;48.882;12.598;2024-02-26T09:58:26;3.05;;;2.10;;
64903;SDS011;51401;48.882;12.598;2024-02-26T10:00:54;3.15;;;2.20;;
64903;SDS011;51401;48.882;12.598;2024-02-26T10:03:23;3.25;;;2.55;;
64903;SDS011;51401;48.882;12.598;2024-02-26T10:05:53;4.50;;;2.42;;
64903;SDS011;51401;48.882;12.598;2024-02-26T10:08:20;3.15;;;2.58;;
64903;SDS011;51401;48.882;12.598;2024-02-26T10:10:47;3.15;;;2.20;;
64903;SDS011;51401;48.882;12.598;2024-02-26T10:13:13;3.70;;;2.33;;
64903;SDS011;51401;48.882;12.598;2024-02-26T10:15:38;2.90;;;2.05;;
64903;SDS011;51401;48.882;12.598;2024-02-26T10:18:04;2.72;;;2.10;;
64903;SDS011;51401;48.882;12.598;2024-02-26T10:20:30;2.50;;;1.80;;
64903;SDS011;51401;48.882;12.598;2024-02-26T10:22:56;3.30;;;2.00;;
64903;SDS011;51401;48.882;12.598;2024-02-26T10:25:22;1.58;;;1.48;;
64903;SDS011;51401;48.882;12.598;2024-02-26T10:27:47;2.77;;;2.00;;
64903;SDS011;51401;48.882;12.598;2024-02-26T10:30:19;4.75;;;1.85;;
64903;SDS011;51401;48.882;12.598;2024-02-26T10:32:46;2.13;;;1.80;;
64903;SDS011;51401;48.882;12.598;2024-02-26T10:35:12;2.58;;;1.90;;
64903;SDS011;51401;48.882;12.598;2024-02-26T10:37:39;2.25;;;1.88;;
64903;SDS011;51401;48.882;12.598;2024-02-26T10:40:06;3.58;;;2.00;;
64903;SDS011;51401;48.882;12.598;2024-02-26T10:42:34;5.75;;;2.10;;
64903;SDS011;51401;48.882;12.598;2024-02-26T10:45:00;2.90;;;2.17;;
64903;SDS011;51401;48.882;12.598;2024-02-26T10:47:27;3.03;;;2.00;;
64903;SDS011;51401;48.882;12.598;2024-02-26T10:49:52;3.60;;;2.10;;
64903;SDS011;51401;48.882;12.598;2024-02-26T10:52:18;4.13;;;1.88;;
64903;SDS011;51401;48.882;12.598;2024-02-26T10:54:44;2.22;;;1.63;;
64903;SDS011;51401;48.882;12.598;2024-02-26T10:57:12;2.83;;;1.70;;
64903;SDS011;51401;48.882;12.598;2024-02-26T10:59:40;2.70;;;2.10;;
64903;SDS011;51401;48.882;12.598;2024-02-26T11:02:07;2.60;;;1.83;;
64903;SDS011;51401;48.882;12.598;2024-02-26T11:04:35;3.00;;;2.20;;
64903;SDS011;51401;48.882;12.598;2024-02-26T11:07:00;2.63;;;2.00;;
64903;SDS011;51401;48.882;12.598;2024-02-26T11:09:26;4.00;;;2.03;;
64903;SDS011;51401;48.882;12.598;2024-02-26T11:11:52;2.90;;;1.92;;
64903;SDS011;51401;48.882;12.598;2024-02-26T11:14:19;1.90;;;1.70;;
64903;SDS011;51401;48.882;12.598;2024-02-26T11:16:46;2.28;;;1.88;;
64903;SDS011;51401;48.882;12.598;2024-02-26T11:19:14;2.88;;;2.05;;
64903;SDS011;51401;48.882;12.598;2024-02-26T11:21:41;2.42;;;1.85;;
64903;SDS011;51401;48.882;12.598;2024-02-26T11:24:11;2.67;;;1.80;;
64903;SDS011;51401;48.882;12.598;2024-02-26T11:26:40;2.08;;;1.70;;
64903;SDS011;51401;48.882;12.598;2024-02-26T11:29:10;2.20;;;1.90;;
64903;SDS011;51401;48.882;12.598;2024-02-26T11:31:38;4.68;;;2.53;;
64903;SDS011;51401;48.882;12.598;2024-02-26T11:34:04;4.75;;;2.33;;
64903;SDS011;51401;48.882;12.598;2024-02-26T11:36:32;3.95;;;2.00;;
64903;SDS011;51401;48.882;12.598;2024-02-26T11:38:57;2.80;;;2.08;;
64903;SDS011;51401;48.882;12.598;2024-02-26T11:41:23;2.70;;;1.95;;
64903;SDS011;51401;48.882;12.598;2024-02-26T11:44:01;2.63;;;2.25;;
64903;SDS011;51401;48.882;12.598;2024-02-26T11:48:57;1.88;;;1.67;;
64903;SDS011;51401;48.882;12.598;2024-02-26T11:51:27;3.03;;;1.83;;
64903;SDS011;51401;48.882;12.598;2024-02-26T11:53:56;3.35;;;1.90;;
64903;SDS011;51401;48.882;12.598;2024-02-26T11:56:22;2.17;;;1.70;;
64903;SDS011;51401;48.882;12.598;2024-02-26T11:58:52;2.40;;;1.88;;
64903;SDS011;51401;48.882;12.598;2024-02-26T12:06:46;4.47;;;2.63;;
64903;SDS011;51401;48.882;12.598;2024-02-26T12:09:39;3.65;;;2.72;;
64903;SDS011;51401;48.882;12.598;2024-02-26T12:12:10;2.60;;;1.92;;
64903;SDS011;51401;48.882;12.598;2024-02-26T12:14:39;2.75;;;2.13;;
64903;SDS011;51401;48.882;12.598;2024-02-26T12:17:06;3.00;;;1.92;;
64903;SDS011;51401;48.882;12.598;2024-02-26T12:19:34;3.88;;;2.28;;
64903;SDS011;51401;48.882;12.598;2024-02-26T12:22:00;3.33;;;1.77;;
64903;SDS011;51401;48.882;12.598;2024-02-26T12:24:25;3.08;;;2.30;;
64903;SDS011;51401;48.882;12.598;2024-02-26T12:26:51;3.53;;;1.90;;
64903;SDS011;51401;48.882;12.598;2024-02-26T12:29:16;3.37;;;2.10;;
64903;SDS011;51401;48.882;12.598;2024-02-26T12:31:41;2.30;;;2.03;;
64903;SDS011;51401;48.882;12.598;2024-02-26T12:34:07;2.17;;;1.90;;
64903;SDS011;51401;48.882;12.598;2024-02-26T12:36:34;4.22;;;2.38;;
64903;SDS011;51401;48.882;12.598;2024-02-26T12:39:00;3.50;;;1.95;;
64903;SDS011;51401;48.882;12.598;2024-02-26T12:41:27;2.42;;;1.98;;
64903;SDS011;51401;48.882;12.598;2024-02-26T12:43:53;4.47;;;2.85;;
64903;SDS011;51401;48.882;12.598;2024-02-26T12:46:18;3.38;;;2.70;;
64903;SDS011;51401;48.882;12.598;2024-02-26T12:48:43;3.00;;;2.20;;
64903;SDS011;51401;48.882;12.598;2024-02-26T12:51:10;1.88;;;1.65;;
64903;SDS011;51401;48.882;12.598;2024-02-26T12:53:37;3.97;;;2.05;;
64903;SDS011;51401;48.882;12.598;2024-02-26T12:56:03;2.92;;;2.20;;
64903;SDS011;51401;48.882;12.598;2024-02-26T12:58:29;3.20;;;2.22;;
64903;SDS011;51401;48.882;12.598;2024-02-26T13:00:56;5.63;;;3.65;;
64903;SDS011;51401;48.882;12.598;2024-02-26T13:03:22;5.65;;;4.05;;
64903;SDS011;51401;48.882;12.598;2024-02-26T13:05:48;6.10;;;4.22;;
64903;SDS011;51401;48.882;12.598;2024-02-26T13:08:18;6.80;;;4.38;;
64903;SDS011;51401;48.882;12.598;2024-02-26T13:10:46;8.68;;;4.80;;
64903;SDS011;51401;48.882;12.598;2024-02-26T13:13:14;10.05;;;4.85;;
64903;SDS011;51401;48.882;12.598;2024-02-26T13:15:41;6.10;;;4.95;;
64903;SDS011;51401;48.882;12.598;2024-02-26T13:18:13;11.35;;;4.90;;
64903;SDS011;51401;48.882;12.598;2024-02-26T13:20:39;8.50;;;4.65;;
64903;SDS011;51401;48.882;12.598;2024-02-26T13:23:06;6.80;;;4.95;;
64903;SDS011;51401;48.882;12.598;2024-02-26T13:25:32;9.82;;;5.15;;
64903;SDS011;51401;48.882;12.598;2024-02-26T13:28:31;7.75;;;5.28;;
64903;SDS011;51401;48.882;12.598;2024-02-26T13:30:53;8.65;;;5.68;;
64903;SDS011;51401;48.882;12.598;2024-02-26T13:33:23;7.60;;;5.57;;
64903;SDS011;51401;48.882;12.598;2024-02-26T13:35:49;7.88;;;5.40;;
64903;SDS011;51401;48.882;12.598;2024-02-26T13:38:15;8.93;;;5.53;;
64903;SDS011;51401;48.882;12.598;2024-02-26T13:40:40;8.32;;;5.28;;
64903;SDS011;51401;48.882;12.598;2024-02-26T13:43:05;7.43;;;5.40;;
64903;SDS011;51401;48.882;12.598;2024-02-26T13:45:33;8.05;;;5.10;;
64903;SDS011;51401;48.882;12.598;2024-02-26T13:48:01;7.43;;;4.72;;
64903;SDS011;51401;48.882;12.598;2024-02-26T13:50:28;7.10;;;4.70;;
64903;SDS011;51401;48.882;12.598;2024-02-26T13:52:53;7.60;;;5.13;;
64903;SDS011;51401;48.882;12.598;2024-02-26T13:55:20;7.30;;;5.13;;
64903;SDS011;51401;48.882;12.598;2024-02-26T13:57:47;7.70;;;4.72;;
64903;SDS011;51401;48.882;12.598;2024-02-26T14:00:13;7.63;;;5.05;;
64903;SDS011;51401;48.882;12.598;2024-02-26T14:02:38;6.95;;;4.97;;
64903;SDS011;51401;48.882;12.598;2024-02-26T14:05:04;7.03;;;4.50;;
64903;SDS011;51401;48.882;12.598;2024-02-26T14:07:30;8.00;;;4.85;;
64903;SDS011;51401;48.882;12.598;2024-02-26T14:09:57;7.60;;;5.75;;
64903;SDS011;51401;48.882;12.598;2024-02-26T14:12:25;7.57;;;5.45;;
64903;SDS011;51401;48.882;12.598;2024-02-26T14:14:50;6.47;;;4.90;;
64903;SDS011;51401;48.882;12.598;2024-02-26T14:17:18;6.95;;;5.15;;
64903;SDS011;51401;48.882;12.598;2024-02-26T14:19:43;7.22;;;5.43;;
64903;SDS011;51401;48.882;12.598;2024-02-26T14:22:12;7.22;;;4.97;;
64903;SDS011;51401;48.882;12.598;2024-02-26T14:24:38;8.60;;;4.95;;
64903;SDS011;51401;48.882;12.598;2024-02-26T14:27:04;6.70;;;4.85;;
64903;SDS011;51401;48.882;12.598;2024-02-26T14:29:30;8.75;;;5.28;;
64903;SDS011;51401;48.882;12.598;2024-02-26T14:31:55;9.20;;;5.67;;
64903;SDS011;51401;48.882;12.598;2024-02-26T14:34:21;6.70;;;4.63;;